createdAt,value
2023-05-05T00:00:17.407Z,95380.00
2023-05-05T00:01:17.462Z,95382.00
2023-05-05T00:02:17.587Z,95382.00
2023-05-05T00:03:17.666Z,95380.00
2023-05-05T00:04:17.797Z,95380.00
2023-05-05T00:05:17.692Z,95380.00
2023-05-05T00:06:17.757Z,95378.00
2023-05-05T00:07:17.849Z,95376.00
2023-05-05T00:08:17.877Z,95378.00
2023-05-05T00:09:17.956Z,95378.00
2023-05-05T00:10:18.017Z,95374.00
2023-05-05T00:11:18.083Z,95374.00
2023-05-05T00:12:18.113Z,95376.00
2023-05-05T00:13:18.232Z,95376.00
2023-05-05T00:14:18.243Z,95376.00
2023-05-05T00:15:18.316Z,95378.00
2023-05-05T00:16:18.387Z,95376.00
2023-05-05T00:17:18.450Z,95374.00
2023-05-05T00:18:18.527Z,95376.00
2023-05-05T00:19:18.594Z,95376.00
2023-05-05T00:20:18.622Z,95378.00
2023-05-05T00:21:18.691Z,95380.00
2023-05-05T00:22:18.754Z,95380.00
2023-05-05T00:23:18.796Z,95380.00
2023-05-05T00:24:18.873Z,95380.00
2023-05-05T00:25:18.912Z,95378.00
2023-05-05T00:26:18.982Z,95380.00
2023-05-05T00:27:19.024Z,95378.00
2023-05-05T00:28:19.122Z,95378.00
2023-05-05T00:29:19.167Z,95376.00
2023-05-05T00:30:19.224Z,95380.00
2023-05-05T00:31:19.275Z,95373.00
2023-05-05T00:32:19.332Z,95378.00
2023-05-05T00:33:19.453Z,95374.00
2023-05-05T00:34:19.468Z,95378.00
2023-05-05T00:35:19.505Z,95378.00
2023-05-05T00:36:19.560Z,95380.00
2023-05-05T00:37:19.600Z,95378.00
2023-05-05T00:38:19.759Z,95378.00
2023-05-05T00:39:19.772Z,95378.00
2023-05-05T00:40:19.802Z,95378.00
2023-05-05T00:41:19.849Z,95378.00
2023-05-05T00:42:19.940Z,95380.00
2023-05-05T00:43:19.953Z,95380.00
2023-05-05T00:44:20.020Z,95378.00
2023-05-05T00:45:20.100Z,95380.00
2023-05-05T00:46:20.208Z,95382.00
2023-05-05T00:47:20.169Z,95380.00
2023-05-05T00:48:20.217Z,95382.00
2023-05-05T00:49:20.332Z,95380.00
2023-05-05T00:50:20.359Z,95380.00
2023-05-05T00:51:20.402Z,95378.00
2023-05-05T00:52:20.429Z,95378.00
2023-05-05T00:53:20.488Z,95380.00
2023-05-05T00:54:20.507Z,95380.00
2023-05-05T00:55:20.551Z,95378.00
2023-05-05T00:56:20.567Z,95378.00
2023-05-05T00:57:20.640Z,95378.00
2023-05-05T00:58:20.622Z,95378.00
2023-05-05T00:59:20.687Z,95378.00
2023-05-05T01:00:20.713Z,95380.00
2023-05-05T01:01:20.751Z,95382.00
2023-05-05T01:02:20.744Z,95382.00
2023-05-05T01:03:20.928Z,95380.00
2023-05-05T01:04:20.931Z,95378.00
2023-05-05T01:05:20.848Z,95380.00
2023-05-05T01:06:20.938Z,95376.00
2023-05-05T01:07:20.989Z,95376.00
2023-05-05T01:08:20.977Z,95376.00
2023-05-05T01:09:21.031Z,95374.00
2023-05-05T01:10:21.166Z,95374.00
2023-05-05T01:11:21.114Z,95374.00
2023-05-05T01:12:21.105Z,95373.00
2023-05-05T01:13:21.132Z,95374.00
2023-05-05T01:14:21.142Z,95373.00
2023-05-05T01:15:21.210Z,95374.00
2023-05-05T01:16:21.270Z,95374.00
2023-05-05T01:17:21.260Z,95374.00
2023-05-05T01:18:21.343Z,95376.00
2023-05-05T01:19:21.363Z,95374.00
2023-05-05T01:20:21.376Z,95376.00
2023-05-05T01:21:21.481Z,95373.00
2023-05-05T01:22:21.533Z,95374.00
2023-05-05T01:23:21.501Z,95371.00
2023-05-05T01:24:21.514Z,95373.00
2023-05-05T01:25:21.560Z,95374.00
2023-05-05T01:26:21.561Z,95374.00
2023-05-05T01:27:21.610Z,95376.00
2023-05-05T01:28:21.665Z,95380.00
2023-05-05T01:29:21.689Z,95380.00
2023-05-05T01:30:21.747Z,95378.00
2023-05-05T01:31:21.882Z,95380.00
2023-05-05T01:32:21.834Z,95380.00
2023-05-05T01:33:21.851Z,95382.00
2023-05-05T01:34:21.869Z,95382.00
2023-05-05T01:35:21.918Z,95378.00
2023-05-05T01:36:21.929Z,95384.00
2023-05-05T01:37:21.936Z,95382.00
2023-05-05T01:38:21.961Z,95384.00
2023-05-05T01:39:22.031Z,95386.00
2023-05-05T01:40:22.034Z,95386.00
2023-05-05T01:41:22.071Z,95384.00
2023-05-05T01:42:22.109Z,95386.00
2023-05-05T01:43:22.124Z,95386.00
2023-05-05T01:44:22.151Z,95386.00
2023-05-05T01:45:22.188Z,95388.00
2023-05-05T01:46:22.383Z,95388.00
2023-05-05T01:47:22.219Z,95388.00
2023-05-05T01:48:22.258Z,95384.00
2023-05-05T01:49:22.337Z,95386.00
2023-05-05T01:50:22.352Z,95388.00
2023-05-05T01:51:22.362Z,95386.00
2023-05-05T01:52:22.395Z,95388.00
2023-05-05T01:53:22.463Z,95384.00
2023-05-05T01:54:22.463Z,95384.00
2023-05-05T01:55:22.508Z,95386.00
2023-05-05T01:56:22.518Z,95386.00
2023-05-05T01:57:22.580Z,95390.00
2023-05-05T01:58:22.593Z,95392.00
2023-05-05T01:59:22.584Z,95394.00
2023-05-05T02:00:22.607Z,95394.00
2023-05-05T02:01:22.671Z,95394.00
2023-05-05T02:02:22.711Z,95394.00
2023-05-05T02:03:22.739Z,95392.00
2023-05-05T02:04:22.766Z,95390.00
2023-05-05T02:05:22.672Z,95388.00
2023-05-05T02:06:22.696Z,95392.00
2023-05-05T02:07:22.690Z,95394.00
2023-05-05T02:08:22.656Z,95394.00
2023-05-05T02:09:22.717Z,95394.00
2023-05-05T02:10:22.694Z,95394.00
2023-05-05T02:11:22.701Z,95394.00
2023-05-05T02:12:22.716Z,95404.00
2023-05-05T02:13:22.758Z,95406.00
2023-05-05T02:14:22.754Z,95404.00
2023-05-05T02:15:22.789Z,95404.00
2023-05-05T02:16:22.771Z,95408.00
2023-05-05T02:17:22.802Z,95404.00
2023-05-05T02:18:22.782Z,95404.00
2023-05-05T02:19:22.780Z,95408.00
2023-05-05T02:20:22.783Z,95406.00
2023-05-05T02:21:22.826Z,95410.00
2023-05-05T02:22:22.831Z,95410.00
2023-05-05T02:23:22.871Z,95410.00
2023-05-05T02:24:22.868Z,95410.00
2023-05-05T02:25:22.865Z,95408.00
2023-05-05T02:26:22.884Z,95406.00
2023-05-05T02:27:22.893Z,95404.00
2023-05-05T02:28:22.899Z,95406.00
2023-05-05T02:29:22.901Z,95406.00
2023-05-05T02:30:22.902Z,95410.00
2023-05-05T02:31:22.939Z,95410.00
2023-05-05T02:32:22.964Z,95410.00
2023-05-05T02:33:22.919Z,95410.00
2023-05-05T02:34:22.904Z,95408.00
2023-05-05T02:35:22.949Z,95408.00
2023-05-05T02:36:22.941Z,95404.00
2023-05-05T02:37:22.956Z,95404.00
2023-05-05T02:38:22.963Z,95406.00
2023-05-05T02:39:22.978Z,95410.00
2023-05-05T02:40:22.974Z,95412.00
2023-05-05T02:41:22.977Z,95412.00
2023-05-05T02:42:22.990Z,95412.00
2023-05-05T02:43:23.118Z,95412.00
2023-05-05T02:44:23.020Z,95410.00
2023-05-05T02:45:23.077Z,95410.00
2023-05-05T02:46:23.156Z,95414.00
2023-05-05T02:47:23.145Z,95412.00
2023-05-05T02:48:23.103Z,95414.00
2023-05-05T02:49:23.179Z,95412.00
2023-05-05T02:50:23.168Z,95414.00
2023-05-05T02:51:23.213Z,95416.00
2023-05-05T02:52:23.214Z,95418.00
2023-05-05T02:53:23.273Z,95416.00
2023-05-05T02:54:23.273Z,95416.00
2023-05-05T02:55:23.320Z,95416.00
2023-05-05T02:56:23.323Z,95414.00
2023-05-05T02:57:23.337Z,95414.00
2023-05-05T02:58:23.425Z,95414.00
2023-05-05T02:59:23.428Z,95412.00
2023-05-05T03:00:23.510Z,95416.00
2023-05-05T03:01:23.619Z,95416.00
2023-05-05T03:02:23.696Z,95420.00
2023-05-05T03:03:23.731Z,95418.00
2023-05-05T03:04:23.726Z,95420.00
2023-05-05T03:05:23.757Z,95422.00
2023-05-05T03:06:23.849Z,95418.00
2023-05-05T03:07:23.915Z,95420.00
2023-05-05T03:08:23.943Z,95418.00
2023-05-05T03:09:24.004Z,95418.00
2023-05-05T03:10:24.046Z,95418.00
2023-05-05T03:11:24.112Z,95416.00
2023-05-05T03:12:24.136Z,95416.00
2023-05-05T03:13:24.169Z,95420.00
2023-05-05T03:14:24.188Z,95418.00
2023-05-05T03:15:24.250Z,95414.00
2023-05-05T03:16:24.363Z,95416.00
2023-05-05T03:17:24.380Z,95418.00
2023-05-05T03:18:24.400Z,95418.00
2023-05-05T03:19:24.441Z,95420.00
2023-05-05T03:20:24.524Z,95420.00
2023-05-05T03:21:24.572Z,95420.00
2023-05-05T03:22:24.581Z,95420.00
2023-05-05T03:23:24.655Z,95418.00
2023-05-05T03:24:24.699Z,95418.00
2023-05-05T03:25:24.731Z,95414.00
2023-05-05T03:26:24.751Z,95416.00
2023-05-05T03:27:24.815Z,95414.00
2023-05-05T03:28:24.877Z,95414.00
2023-05-05T03:29:24.887Z,95418.00
2023-05-05T03:30:24.963Z,95418.00
2023-05-05T03:31:25.022Z,95420.00
2023-05-05T03:32:25.094Z,95418.00
2023-05-05T03:33:25.034Z,95420.00
2023-05-05T03:34:25.090Z,95420.00
2023-05-05T03:35:25.120Z,95422.00
2023-05-05T03:36:26.677Z,95420.00
2023-05-05T03:37:25.126Z,95422.00
2023-05-05T03:38:25.148Z,95418.00
2023-05-05T03:39:25.123Z,95418.00
2023-05-05T03:40:32.686Z,95418.00
2023-05-05T03:41:26.118Z,95420.00
2023-05-05T03:42:25.108Z,95420.00
2023-05-05T03:43:25.100Z,95422.00
2023-05-05T03:44:25.090Z,95420.00
2023-05-05T03:45:25.101Z,95420.00
2023-05-05T03:46:25.103Z,95420.00
2023-05-05T03:47:25.089Z,95420.00
2023-05-05T03:48:25.038Z,95422.00
2023-05-05T03:49:25.064Z,95418.00
2023-05-05T03:50:25.048Z,95418.00
2023-05-05T03:51:25.073Z,95418.00
2023-05-05T03:52:25.032Z,95416.00
2023-05-05T03:53:25.006Z,95418.00
2023-05-05T03:54:25.045Z,95416.00
2023-05-05T03:55:25.120Z,95414.00
2023-05-05T03:56:25.097Z,95414.00
2023-05-05T03:57:25.152Z,95414.00
2023-05-05T03:58:25.177Z,95414.00
2023-05-05T03:59:25.199Z,95414.00
2023-05-05T04:00:25.254Z,95414.00
2023-05-05T04:01:25.266Z,95412.00
2023-05-05T04:02:25.405Z,95412.00
2023-05-05T04:03:25.470Z,95414.00
2023-05-05T04:04:25.438Z,95412.00
2023-05-05T04:05:25.427Z,95412.00
2023-05-05T04:06:25.460Z,95412.00
2023-05-05T04:07:25.477Z,95412.00
2023-05-05T04:08:25.545Z,95414.00
2023-05-05T04:09:25.574Z,95412.00
2023-05-05T04:10:25.613Z,95412.00
2023-05-05T04:11:25.646Z,95414.00
2023-05-05T04:12:25.695Z,95410.00
2023-05-05T04:13:25.693Z,95414.00
2023-05-05T04:14:25.721Z,95416.00
2023-05-05T04:15:25.784Z,95414.00
2023-05-05T04:16:25.899Z,95418.00
2023-05-05T04:17:25.885Z,95418.00
2023-05-05T04:18:25.855Z,95418.00
2023-05-05T04:19:25.919Z,95420.00
2023-05-05T04:20:25.949Z,95418.00
2023-05-05T04:21:26.004Z,95420.00
2023-05-05T04:22:25.991Z,95420.00
2023-05-05T04:23:26.035Z,95420.00
2023-05-05T04:24:26.048Z,95420.00
2023-05-05T04:25:26.114Z,95420.00
2023-05-05T04:26:26.157Z,95420.00
2023-05-05T04:27:26.204Z,95418.00
2023-05-05T04:28:26.201Z,95420.00
2023-05-05T04:29:26.227Z,95420.00
2023-05-05T04:30:26.250Z,95420.00
2023-05-05T04:31:26.283Z,95420.00
2023-05-05T04:32:26.370Z,95426.00
2023-05-05T04:33:26.354Z,95422.00
2023-05-05T04:34:26.370Z,95424.00
2023-05-05T04:35:26.420Z,95424.00
2023-05-05T04:36:26.485Z,95426.00
2023-05-05T04:37:26.518Z,95426.00
2023-05-05T04:38:26.614Z,95429.00
2023-05-05T04:39:26.547Z,95427.00
2023-05-05T04:40:26.582Z,95429.00
2023-05-05T04:41:27.666Z,95431.00
2023-05-05T04:42:26.677Z,95433.00
2023-05-05T04:43:26.733Z,95433.00
2023-05-05T04:44:26.803Z,95433.00
2023-05-05T04:45:26.792Z,95435.00
2023-05-05T04:46:26.885Z,95433.00
2023-05-05T04:47:26.942Z,95435.00
2023-05-05T04:48:26.917Z,95435.00
2023-05-05T04:49:26.963Z,95437.00
2023-05-05T04:50:27.014Z,95439.00
2023-05-05T04:51:27.036Z,95435.00
2023-05-05T04:52:27.094Z,95435.00
2023-05-05T04:53:27.127Z,95433.00
2023-05-05T04:54:27.205Z,95435.00
2023-05-05T04:55:27.229Z,95435.00
2023-05-05T04:56:27.291Z,95433.00
2023-05-05T04:57:27.315Z,95437.00
2023-05-05T04:58:27.343Z,95437.00
2023-05-05T04:59:27.321Z,95439.00
2023-05-05T05:00:27.326Z,95441.00
2023-05-05T05:01:37.749Z,95443.00
2023-05-05T05:02:27.399Z,95439.00
2023-05-05T05:03:27.428Z,95447.00
2023-05-05T05:04:27.361Z,95447.00
2023-05-05T05:05:27.371Z,95447.00
2023-05-05T05:06:27.324Z,95445.00
2023-05-05T05:07:27.344Z,95447.00
2023-05-05T05:08:27.319Z,95445.00
2023-05-05T05:09:27.343Z,95445.00
2023-05-05T05:10:27.383Z,95445.00
2023-05-05T05:11:27.468Z,95447.00
2023-05-05T05:12:27.508Z,95447.00
2023-05-05T05:13:27.527Z,95451.00
2023-05-05T05:14:27.562Z,95451.00
2023-05-05T05:15:27.638Z,95447.00
2023-05-05T05:16:27.706Z,95447.00
2023-05-05T05:17:27.749Z,95447.00
2023-05-05T05:18:27.743Z,95449.00
2023-05-05T05:19:27.799Z,95447.00
2023-05-05T05:20:27.878Z,95447.00
2023-05-05T05:21:27.876Z,95447.00
2023-05-05T05:22:27.933Z,95447.00
2023-05-05T05:23:28.003Z,95445.00
2023-05-05T05:24:28.026Z,95447.00
2023-05-05T05:25:28.040Z,95445.00
2023-05-05T05:26:28.070Z,95447.00
2023-05-05T05:27:28.111Z,95449.00
2023-05-05T05:28:28.175Z,95449.00
2023-05-05T05:29:28.177Z,95443.00
2023-05-05T05:30:28.263Z,95445.00
2023-05-05T05:31:28.285Z,95445.00
2023-05-05T05:32:28.400Z,95441.00
2023-05-05T05:33:28.359Z,95443.00
2023-05-05T05:34:28.428Z,95443.00
2023-05-05T05:35:28.491Z,95441.00
2023-05-05T05:36:28.606Z,95443.00
2023-05-05T05:37:29.345Z,95445.00
2023-05-05T05:38:28.605Z,95445.00
2023-05-05T05:39:28.568Z,95447.00
2023-05-05T05:40:28.584Z,95449.00
2023-05-05T05:41:28.588Z,95451.00
2023-05-05T05:42:28.901Z,95455.00
2023-05-05T05:43:28.644Z,95449.00
2023-05-05T05:44:28.665Z,95451.00
2023-05-05T05:45:28.695Z,95449.00
2023-05-05T05:46:36.283Z,95449.00
2023-05-05T05:47:28.944Z,95449.00
2023-05-05T05:48:28.728Z,95451.00
2023-05-05T05:49:28.681Z,95449.00
2023-05-05T05:50:28.774Z,95453.00
2023-05-05T05:51:28.692Z,95451.00
2023-05-05T05:52:29.401Z,95453.00
2023-05-05T05:53:28.642Z,95455.00
2023-05-05T05:54:28.687Z,95455.00
2023-05-05T05:55:28.661Z,95453.00
2023-05-05T05:56:28.628Z,95449.00
2023-05-05T05:57:28.647Z,95449.00
2023-05-05T05:58:28.602Z,95449.00
2023-05-05T05:59:28.697Z,95449.00
2023-05-05T06:00:28.595Z,95453.00
2023-05-05T06:01:28.635Z,95449.00
2023-05-05T06:02:28.772Z,95453.00
2023-05-05T06:03:28.604Z,95453.00
2023-05-05T06:04:28.632Z,95455.00
2023-05-05T06:05:28.564Z,95453.00
2023-05-05T06:06:28.599Z,95453.00
2023-05-05T06:07:28.574Z,95453.00
2023-05-05T06:08:28.542Z,95451.00
2023-05-05T06:09:28.556Z,95451.00
2023-05-05T06:10:28.718Z,95449.00
2023-05-05T06:11:28.518Z,95453.00
2023-05-05T06:12:28.535Z,95453.00
2023-05-05T06:13:28.569Z,95455.00
2023-05-05T06:14:28.669Z,95455.00
2023-05-05T06:15:28.662Z,95451.00
2023-05-05T06:16:28.772Z,95449.00
2023-05-05T06:17:28.710Z,95449.00
2023-05-05T06:18:28.750Z,95449.00
2023-05-05T06:19:28.789Z,95445.00
2023-05-05T06:20:28.818Z,95445.00
2023-05-05T06:21:28.870Z,95447.00
2023-05-05T06:22:28.942Z,95445.00
2023-05-05T06:23:29.024Z,95443.00
2023-05-05T06:24:29.051Z,95441.00
2023-05-05T06:25:29.139Z,95441.00
2023-05-05T06:26:29.165Z,95443.00
2023-05-05T06:27:29.268Z,95441.00
2023-05-05T06:28:29.285Z,95441.00
2023-05-05T06:29:29.345Z,95443.00
2023-05-05T06:30:29.441Z,95443.00
2023-05-05T06:31:29.510Z,95443.00
2023-05-05T06:32:29.528Z,95439.00
2023-05-05T06:33:29.579Z,95437.00
2023-05-05T06:34:29.630Z,95437.00
2023-05-05T06:35:29.687Z,95433.00
2023-05-05T06:36:29.784Z,95431.00
2023-05-05T06:37:29.755Z,95433.00
2023-05-05T06:38:29.903Z,95429.00
2023-05-05T06:39:29.880Z,95426.00
2023-05-05T06:40:29.926Z,95427.00
2023-05-05T06:41:29.970Z,95426.00
2023-05-05T06:42:30.011Z,95429.00
2023-05-05T06:43:30.461Z,95426.00
2023-05-05T06:44:29.959Z,95422.00
2023-05-05T06:45:30.002Z,95420.00
2023-05-05T06:46:30.119Z,95422.00
2023-05-05T06:47:30.505Z,95420.00
2023-05-05T06:48:30.059Z,95420.00
2023-05-05T06:49:31.342Z,95420.00
2023-05-05T06:50:30.257Z,95416.00
2023-05-05T06:51:30.231Z,95422.00
2023-05-05T06:52:30.254Z,95420.00
2023-05-05T06:53:30.385Z,95416.00
2023-05-05T06:54:30.332Z,95418.00
2023-05-05T06:55:30.369Z,95414.00
2023-05-05T06:56:30.378Z,95414.00
2023-05-05T06:57:30.385Z,95418.00
2023-05-05T06:58:30.439Z,95414.00
2023-05-05T06:59:30.407Z,95414.00
2023-05-05T07:00:30.447Z,95418.00
2023-05-05T07:01:30.418Z,95420.00
2023-05-05T07:02:30.427Z,95424.00
2023-05-05T07:03:30.446Z,95418.00
2023-05-05T07:04:30.435Z,95422.00
2023-05-05T07:05:30.461Z,95416.00
2023-05-05T07:06:30.571Z,95418.00
2023-05-05T07:07:30.562Z,95418.00
2023-05-05T07:08:30.629Z,95414.00
2023-05-05T07:09:30.671Z,95412.00
2023-05-05T07:10:30.741Z,95416.00
2023-05-05T07:11:30.840Z,95412.00
2023-05-05T07:12:30.885Z,95410.00
2023-05-05T07:13:30.838Z,95408.00
2023-05-05T07:14:31.099Z,95410.00
2023-05-05T07:15:30.910Z,95408.00
2023-05-05T07:16:31.043Z,95408.00
2023-05-05T07:17:30.989Z,95408.00
2023-05-05T07:18:31.964Z,95408.00
2023-05-05T07:19:31.008Z,95392.00
2023-05-05T07:20:31.067Z,95394.00
2023-05-05T07:21:31.069Z,95390.00
2023-05-05T07:22:31.065Z,95390.00
2023-05-05T07:23:31.522Z,95392.00
2023-05-05T07:24:31.101Z,95386.00
2023-05-05T07:25:31.132Z,95384.00
2023-05-05T07:26:31.093Z,95386.00
2023-05-05T07:27:31.473Z,95386.00
2023-05-05T07:28:31.125Z,95388.00
2023-05-05T07:29:31.092Z,95386.00
2023-05-05T07:30:31.155Z,95386.00
2023-05-05T07:31:31.122Z,95382.00
2023-05-05T07:32:31.121Z,95380.00
2023-05-05T07:33:31.458Z,95380.00
2023-05-05T07:34:31.122Z,95380.00
2023-05-05T07:35:31.125Z,95380.00
2023-05-05T07:36:31.134Z,95378.00
2023-05-05T07:37:31.088Z,95373.00
2023-05-05T07:38:31.098Z,95373.00
2023-05-05T07:39:31.146Z,95374.00
2023-05-05T07:40:31.212Z,95373.00
2023-05-05T07:41:31.237Z,95371.00
2023-05-05T07:42:31.314Z,95371.00
2023-05-05T07:43:31.316Z,95371.00
2023-05-05T07:44:31.313Z,95373.00
2023-05-05T07:45:31.343Z,95369.00
2023-05-05T07:46:31.548Z,95363.00
2023-05-05T07:47:31.474Z,95361.00
2023-05-05T07:48:31.344Z,95363.00
2023-05-05T07:49:31.366Z,95357.00
2023-05-05T07:50:31.377Z,95355.00
2023-05-05T07:51:32.630Z,95353.00
2023-05-05T07:52:45.074Z,95355.00
2023-05-05T07:53:32.367Z,95353.00
2023-05-05T07:54:31.312Z,95347.00
2023-05-05T07:55:31.325Z,95347.00
2023-05-05T07:56:31.370Z,95345.00
2023-05-05T07:57:31.318Z,95343.00
2023-05-05T07:58:31.309Z,95347.00
2023-05-05T07:59:31.274Z,95345.00
2023-05-05T08:00:31.349Z,95341.00
2023-05-05T08:01:31.339Z,95341.00
2023-05-05T08:02:31.495Z,95343.00
2023-05-05T08:03:31.615Z,95341.00
2023-05-05T08:04:31.522Z,95343.00
2023-05-05T08:05:31.587Z,95339.00
2023-05-05T08:06:31.628Z,95345.00
2023-05-05T08:07:31.654Z,95341.00
2023-05-05T08:08:31.744Z,95343.00
2023-05-05T08:09:31.780Z,95343.00
2023-05-05T08:10:31.930Z,95339.00
2023-05-05T08:11:31.962Z,95339.00
2023-05-05T08:12:31.999Z,95337.00
2023-05-05T08:13:32.045Z,95335.00
2023-05-05T08:14:32.119Z,95335.00
2023-05-05T08:15:32.174Z,95333.00
2023-05-05T08:16:32.205Z,95331.00
2023-05-05T08:17:32.266Z,95335.00
2023-05-05T08:18:32.370Z,95333.00
2023-05-05T08:19:32.251Z,95335.00
2023-05-05T08:20:32.322Z,95331.00
2023-05-05T08:21:32.350Z,95329.00
2023-05-05T08:22:32.371Z,95327.00
2023-05-05T08:23:32.361Z,95327.00
2023-05-05T08:24:32.497Z,95327.00
2023-05-05T08:25:32.423Z,95326.00
2023-05-05T08:26:32.438Z,95326.00
2023-05-05T08:27:32.453Z,95327.00
2023-05-05T08:28:32.453Z,95324.00
2023-05-05T08:29:32.507Z,95324.00
2023-05-05T08:30:32.523Z,95320.00
2023-05-05T08:31:32.728Z,95322.00
2023-05-05T08:32:32.753Z,95320.00
2023-05-05T08:33:32.906Z,95316.00
2023-05-05T08:34:32.998Z,95314.00
2023-05-05T08:35:33.052Z,95312.00
2023-05-05T08:36:33.092Z,95310.00
2023-05-05T08:37:33.087Z,95310.00
2023-05-05T08:38:33.088Z,95304.00
2023-05-05T08:39:33.120Z,95304.00
2023-05-05T08:40:33.152Z,95304.00
2023-05-05T08:41:33.135Z,95302.00
2023-05-05T08:42:37.299Z,95300.00
2023-05-05T08:43:34.205Z,95296.00
2023-05-05T08:44:33.184Z,95296.00
2023-05-05T08:45:33.130Z,95292.00
2023-05-05T08:46:33.157Z,95290.00
2023-05-05T08:47:33.185Z,95288.00
2023-05-05T08:48:33.139Z,95286.00
2023-05-05T08:49:33.125Z,95286.00
2023-05-05T08:50:33.239Z,95288.00
2023-05-05T08:51:33.121Z,95286.00
2023-05-05T08:52:33.133Z,95282.00
2023-05-05T08:53:33.488Z,95282.00
2023-05-05T08:54:33.187Z,95284.00
2023-05-05T08:55:33.221Z,95280.00
2023-05-05T08:56:33.306Z,95282.00
2023-05-05T08:57:33.385Z,95282.00
2023-05-05T08:58:33.370Z,95282.00
2023-05-05T08:59:33.430Z,95280.00
2023-05-05T09:00:33.453Z,95278.00
2023-05-05T09:01:33.640Z,95276.00
2023-05-05T09:02:33.650Z,95274.00
2023-05-05T09:03:33.632Z,95272.00
2023-05-05T09:04:33.729Z,95271.00
2023-05-05T09:05:33.698Z,95272.00
2023-05-05T09:06:33.912Z,95272.00
2023-05-05T09:07:33.783Z,95271.00
2023-05-05T09:08:34.125Z,95272.00
2023-05-05T09:09:33.833Z,95271.00
2023-05-05T09:10:33.875Z,95265.00
2023-05-05T09:11:34.166Z,95263.00
2023-05-05T09:12:33.948Z,95265.00
2023-05-05T09:13:34.129Z,95263.00
2023-05-05T09:14:34.180Z,95263.00
2023-05-05T09:15:34.168Z,95259.00
2023-05-05T09:16:34.187Z,95259.00
2023-05-05T09:17:34.191Z,95261.00
2023-05-05T09:18:34.200Z,95259.00
2023-05-05T09:19:34.177Z,95255.00
2023-05-05T09:20:34.221Z,95253.00
2023-05-05T09:21:34.197Z,95249.00
2023-05-05T09:22:34.216Z,95249.00
2023-05-05T09:23:34.315Z,95249.00
2023-05-05T09:24:34.320Z,95247.00
2023-05-05T09:25:34.235Z,95247.00
2023-05-05T09:26:34.297Z,95243.00
2023-05-05T09:27:34.358Z,95241.00
2023-05-05T09:28:34.312Z,95241.00
2023-05-05T09:29:34.371Z,95237.00
2023-05-05T09:30:34.321Z,95239.00
2023-05-05T09:31:34.374Z,95237.00
2023-05-05T09:32:34.529Z,95235.00
2023-05-05T09:33:34.987Z,95229.00
2023-05-05T09:34:34.456Z,95229.00
2023-05-05T09:35:34.482Z,95227.00
2023-05-05T09:36:34.463Z,95224.00
2023-05-05T09:37:34.476Z,95225.00
2023-05-05T09:38:34.613Z,95220.00
2023-05-05T09:39:34.538Z,95220.00
2023-05-05T09:40:34.603Z,95220.00
2023-05-05T09:41:34.627Z,95222.00
2023-05-05T09:42:34.650Z,95218.00
2023-05-05T09:43:35.057Z,95214.00
2023-05-05T09:44:34.784Z,95214.00
2023-05-05T09:45:34.900Z,95214.00
2023-05-05T09:46:34.940Z,95214.00
2023-05-05T09:47:35.312Z,95212.00
2023-05-05T09:48:35.089Z,95210.00
2023-05-05T09:49:35.070Z,95210.00
2023-05-05T09:50:35.226Z,95210.00
2023-05-05T09:51:35.164Z,95210.00
2023-05-05T09:52:35.225Z,95204.00
2023-05-05T09:53:35.356Z,95204.00
2023-05-05T09:54:35.413Z,95202.00
2023-05-05T09:55:35.349Z,95204.00
2023-05-05T09:56:35.369Z,95202.00
2023-05-05T09:57:35.464Z,95198.00
2023-05-05T09:58:35.585Z,95200.00
2023-05-05T09:59:35.596Z,95198.00
2023-05-05T10:00:36.759Z,95198.00
2023-05-05T10:01:35.713Z,95196.00
2023-05-05T10:02:35.796Z,95194.00
2023-05-05T10:03:35.895Z,95196.00
2023-05-05T10:04:36.082Z,95192.00
2023-05-05T10:05:35.974Z,95192.00
2023-05-05T10:06:36.052Z,95190.00
2023-05-05T10:07:36.077Z,95188.00
2023-05-05T10:08:36.161Z,95188.00
2023-05-05T10:09:36.190Z,95190.00
2023-05-05T10:10:36.248Z,95184.00
2023-05-05T10:11:36.244Z,95186.00
2023-05-05T10:12:36.284Z,95184.00
2023-05-05T10:13:36.311Z,95184.00
2023-05-05T10:14:36.337Z,95182.00
2023-05-05T10:15:36.370Z,95182.00
2023-05-05T10:16:36.485Z,95178.00
2023-05-05T10:17:36.518Z,95177.00
2023-05-05T10:18:36.521Z,95175.00
2023-05-05T10:19:36.607Z,95173.00
2023-05-05T10:20:36.642Z,95169.00
2023-05-05T10:21:36.663Z,95169.00
2023-05-05T10:22:36.659Z,95171.00
2023-05-05T10:23:36.692Z,95163.00
2023-05-05T10:24:36.745Z,95165.00
2023-05-05T10:25:36.772Z,95163.00
2023-05-05T10:26:37.039Z,95167.00
2023-05-05T10:27:36.914Z,95167.00
2023-05-05T10:28:36.899Z,95163.00
2023-05-05T10:29:37.074Z,95163.00
2023-05-05T10:30:36.984Z,95159.00
2023-05-05T10:31:37.056Z,95157.00
2023-05-05T10:33:38.244Z,95153.00
2023-05-05T10:34:37.071Z,95151.00
2023-05-05T10:35:37.009Z,95149.00
2023-05-05T10:36:36.998Z,95137.00
2023-05-05T10:37:37.017Z,95137.00
2023-05-05T10:38:37.015Z,95135.00
2023-05-05T10:39:36.945Z,95133.00
2023-05-05T10:40:36.962Z,95125.00
2023-05-05T10:41:36.985Z,95125.00
2023-05-05T10:42:37.008Z,95127.00
2023-05-05T10:43:36.961Z,95125.00
2023-05-05T10:44:36.945Z,95125.00
2023-05-05T10:45:37.044Z,95118.00
2023-05-05T10:46:37.193Z,95118.00
2023-05-05T10:47:38.085Z,95116.00
2023-05-05T10:48:37.212Z,95114.00
2023-05-05T10:49:37.532Z,95112.00
2023-05-05T10:50:37.234Z,95108.00
2023-05-05T10:51:40.978Z,95112.00
2023-05-05T10:52:37.342Z,95110.00
2023-05-05T10:53:37.325Z,95110.00
2023-05-05T10:54:38.309Z,95108.00
2023-05-05T10:55:37.300Z,95106.00
2023-05-05T10:56:37.287Z,95098.00
2023-05-05T10:57:37.263Z,95102.00
2023-05-05T10:58:50.981Z,95096.00
2023-05-05T10:59:38.811Z,95094.00
2023-05-05T11:00:37.229Z,95094.00
2023-05-05T11:01:37.341Z,95090.00
2023-05-05T11:02:37.294Z,95092.00
2023-05-05T11:03:37.313Z,95088.00
2023-05-05T11:04:37.234Z,95086.00
2023-05-05T11:05:37.215Z,95086.00
2023-05-05T11:06:37.218Z,95080.00
2023-05-05T11:07:37.212Z,95080.00
2023-05-05T11:08:37.181Z,95080.00
2023-05-05T11:09:37.224Z,95078.00
2023-05-05T11:10:37.196Z,95077.00
2023-05-05T11:11:37.178Z,95073.00
2023-05-05T11:12:38.872Z,95071.00
2023-05-05T11:13:37.170Z,95063.00
2023-05-05T11:14:37.246Z,95059.00
2023-05-05T11:15:37.233Z,95059.00
2023-05-05T11:16:37.314Z,95057.00
2023-05-05T11:17:37.281Z,95059.00
2023-05-05T11:18:37.267Z,95055.00
2023-05-05T11:19:37.314Z,95053.00
2023-05-05T11:20:37.434Z,95051.00
2023-05-05T11:21:37.419Z,95051.00
2023-05-05T11:22:37.421Z,95049.00
2023-05-05T11:23:37.528Z,95047.00
2023-05-05T11:24:37.484Z,95043.00
2023-05-05T11:25:38.101Z,95043.00
2023-05-05T11:26:37.621Z,95041.00
2023-05-05T11:27:37.629Z,95039.00
2023-05-05T11:28:37.656Z,95039.00
2023-05-05T11:29:37.739Z,95035.00
2023-05-05T11:30:37.831Z,95035.00
2023-05-05T11:31:37.808Z,95037.00
2023-05-05T11:32:37.828Z,95033.00
2023-05-05T11:33:37.857Z,95033.00
2023-05-05T11:34:38.079Z,95031.00
2023-05-05T11:35:37.931Z,95027.00
2023-05-05T11:36:38.020Z,95027.00
2023-05-05T11:37:38.084Z,95023.00
2023-05-05T11:38:38.144Z,95022.00
2023-05-05T11:39:38.132Z,95022.00
2023-05-05T11:40:38.153Z,95016.00
2023-05-05T11:41:38.205Z,95018.00
2023-05-05T11:42:38.232Z,95018.00
2023-05-05T11:43:38.278Z,95014.00
2023-05-05T11:44:38.296Z,95016.00
2023-05-05T11:45:38.350Z,95014.00